sensor_id;sensor_type;location;lat;lon;timestamp;noise_LAeq;noise_LA_min;noise_LA_max;noise_LA01;noise_LA95
40103;Laerm;25814;48.550;9.108;2024-03-08T00:00:10;30.86;29.21;34.48;;
40103;Laerm;25814;48.550;9.108;2024-03-08T00:02:42;31.40;29.16;37.06;;
40103;Laerm;25814;48.550;9.108;2024-03-08T00:05:09;30.89;29.14;34.54;;
40103;Laerm;25814;48.550;9.108;2024-03-08T00:07:36;31.86;29.12;40.40;;
40103;Laerm;25814;48.550;9.108;2024-03-08T00:10:08;31.58;29.41;35.43;;
40103;Laerm;25814;48.550;9.108;2024-03-08T00:12:38;30.91;29.09;34.54;;
40103;Laerm;25814;48.550;9.108;2024-03-08T00:15:10;31.00;29.19;34.90;;
40103;Laerm;25814;48.550;9.108;2024-03-08T00:17:39;31.20;29.23;40.31;;
40103;Laerm;25814;48.550;9.108;2024-03-08T00:20:07;31.18;29.17;34.82;;
40103;Laerm;25814;48.550;9.108;2024-03-08T00:22:37;33.80;29.21;45.40;;
40103;Laerm;25814;48.550;9.108;2024-03-08T00:25:05;30.79;29.25;34.28;;
40103;Laerm;25814;48.550;9.108;2024-03-08T00:27:35;31.50;29.27;42.75;;
40103;Laerm;25814;48.550;9.108;2024-03-08T00:30:02;30.84;28.82;43.52;;
40103;Laerm;25814;48.550;9.108;2024-03-08T00:32:28;30.88;29.18;34.57;;
40103;Laerm;25814;48.550;9.108;2024-03-08T00:34:54;30.78;29.17;34.44;;
40103;Laerm;25814;48.550;9.108;2024-03-08T00:37:21;30.61;29.07;34.19;;
40103;Laerm;25814;48.550;9.108;2024-03-08T00:39:51;30.96;29.24;34.49;;
40103;Laerm;25814;48.550;9.108;2024-03-08T00:42:18;30.69;29.04;34.25;;
40103;Laerm;25814;48.550;9.108;2024-03-08T00:44:45;30.58;28.97;34.05;;
40103;Laerm;25814;48.550;9.108;2024-03-08T00:47:11;30.69;29.07;34.72;;
40103;Laerm;25814;48.550;9.108;2024-03-08T00:49:38;30.69;29.01;34.23;;
40103;Laerm;25814;48.550;9.108;2024-03-08T00:52:05;31.34;29.14;36.88;;
40103;Laerm;25814;48.550;9.108;2024-03-08T00:54:34;30.66;28.99;34.80;;
40103;Laerm;25814;48.550;9.108;2024-03-08T00:57:04;30.64;28.92;42.49;;
40103;Laerm;25814;48.550;9.108;2024-03-08T00:59:32;30.53;29.05;34.53;;
40103;Laerm;25814;48.550;9.108;2024-03-08T01:01:59;30.94;29.03;34.55;;
40103;Laerm;25814;48.550;9.108;2024-03-08T01:04:26;30.75;29.18;34.61;;
40103;Laerm;25814;48.550;9.108;2024-03-08T01:06:56;30.65;29.03;34.76;;
40103;Laerm;25814;48.550;9.108;2024-03-08T01:09:23;30.56;28.92;34.22;;
40103;Laerm;25814;48.550;9.108;2024-03-08T01:11:49;30.68;28.93;41.88;;
40103;Laerm;25814;48.550;9.108;2024-03-08T01:14:16;30.60;29.00;34.16;;
40103;Laerm;25814;48.550;9.108;2024-03-08T01:16:42;30.66;29.20;34.26;;
40103;Laerm;25814;48.550;9.108;2024-03-08T01:19:08;33.77;29.01;46.60;;
40103;Laerm;25814;48.550;9.108;2024-03-08T01:21:35;31.40;28.95;39.37;;
40103;Laerm;25814;48.550;9.108;2024-03-08T01:24:01;30.61;28.89;34.43;;
40103;Laerm;25814;48.550;9.108;2024-03-08T01:26:28;30.73;29.14;34.45;;
40103;Laerm;25814;48.550;9.108;2024-03-08T01:28:54;30.62;28.73;34.50;;
40103;Laerm;25814;48.550;9.108;2024-03-08T01:31:20;30.60;28.95;34.63;;
40103;Laerm;25814;48.550;9.108;2024-03-08T01:33:46;30.69;29.10;42.43;;
40103;Laerm;25814;48.550;9.108;2024-03-08T01:36:13;30.47;28.95;35.17;;
40103;Laerm;25814;48.550;9.108;2024-03-08T01:38:42;30.53;29.00;34.35;;
40103;Laerm;25814;48.550;9.108;2024-03-08T01:41:08;30.56;28.99;34.08;;
40103;Laerm;25814;48.550;9.108;2024-03-08T01:43:34;30.70;28.98;44.76;;
40103;Laerm;25814;48.550;9.108;2024-03-08T01:46:01;30.65;28.95;34.44;;
40103;Laerm;25814;48.550;9.108;2024-03-08T01:48:29;30.80;29.15;34.26;;
40103;Laerm;25814;48.550;9.108;2024-03-08T01:50:57;30.62;29.04;33.97;;
40103;Laerm;25814;48.550;9.108;2024-03-08T01:53:30;30.74;29.02;34.51;;
40103;Laerm;25814;48.550;9.108;2024-03-08T01:55:57;30.68;29.17;34.19;;
40103;Laerm;25814;48.550;9.108;2024-03-08T01:58:27;30.75;29.28;34.50;;
40103;Laerm;25814;48.550;9.108;2024-03-08T02:00:54;30.91;29.10;41.89;;
40103;Laerm;25814;48.550;9.108;2024-03-08T02:03:21;30.64;29.08;34.48;;
40103;Laerm;25814;48.550;9.108;2024-03-08T02:05:49;30.66;28.94;37.20;;
40103;Laerm;25814;48.550;9.108;2024-03-08T02:08:17;30.82;28.91;43.84;;
40103;Laerm;25814;48.550;9.108;2024-03-08T02:10:44;30.65;28.99;34.49;;
40103;Laerm;25814;48.550;9.108;2024-03-08T02:13:11;30.65;28.94;34.60;;
40103;Laerm;25814;48.550;9.108;2024-03-08T02:18:20;32.82;29.90;41.34;;
40103;Laerm;25814;48.550;9.108;2024-03-08T02:20:54;34.50;28.98;48.66;;
40103;Laerm;25814;48.550;9.108;2024-03-08T02:23:21;30.65;28.92;34.81;;
40103;Laerm;25814;48.550;9.108;2024-03-08T02:25:48;30.82;29.16;35.80;;
40103;Laerm;25814;48.550;9.108;2024-03-08T02:28:15;31.00;29.05;46.53;;
40103;Laerm;25814;48.550;9.108;2024-03-08T02:30:41;31.93;28.88;40.02;;
40103;Laerm;25814;48.550;9.108;2024-03-08T02:33:08;31.81;29.18;39.30;;
40103;Laerm;25814;48.550;9.108;2024-03-08T02:35:35;30.94;29.21;38.04;;
40103;Laerm;25814;48.550;9.108;2024-03-08T02:38:03;30.84;29.21;35.18;;
40103;Laerm;25814;48.550;9.108;2024-03-08T02:40:29;30.83;29.21;34.42;;
40103;Laerm;25814;48.550;9.108;2024-03-08T02:42:56;30.87;29.18;34.90;;
40103;Laerm;25814;48.550;9.108;2024-03-08T02:45:22;30.73;29.04;35.78;;
40103;Laerm;25814;48.550;9.108;2024-03-08T02:47:48;30.80;29.21;34.87;;
40103;Laerm;25814;48.550;9.108;2024-03-08T02:50:17;30.84;29.25;39.51;;
40103;Laerm;25814;48.550;9.108;2024-03-08T02:52:43;30.77;29.07;34.81;;
40103;Laerm;25814;48.550;9.108;2024-03-08T02:55:11;30.89;29.25;35.29;;
40103;Laerm;25814;48.550;9.108;2024-03-08T02:57:42;30.84;28.98;35.70;;
40103;Laerm;25814;48.550;9.108;2024-03-08T03:00:10;30.87;29.15;38.40;;
40103;Laerm;25814;48.550;9.108;2024-03-08T03:02:36;30.72;29.11;35.14;;
40103;Laerm;25814;48.550;9.108;2024-03-08T03:05:04;30.79;28.96;38.04;;
40103;Laerm;25814;48.550;9.108;2024-03-08T03:07:34;30.76;29.19;34.69;;
40103;Laerm;25814;48.550;9.108;2024-03-08T03:10:01;30.98;29.06;47.01;;
40103;Laerm;25814;48.550;9.108;2024-03-08T03:12:31;30.78;29.18;34.43;;
40103;Laerm;25814;48.550;9.108;2024-03-08T03:14:59;30.99;29.29;40.86;;
40103;Laerm;25814;48.550;9.108;2024-03-08T03:17:26;30.97;29.29;35.05;;
40103;Laerm;25814;48.550;9.108;2024-03-08T03:19:52;34.87;29.41;48.61;;
40103;Laerm;25814;48.550;9.108;2024-03-08T03:22:19;30.90;29.37;35.72;;
40103;Laerm;25814;48.550;9.108;2024-03-08T03:24:46;30.93;29.05;35.11;;
40103;Laerm;25814;48.550;9.108;2024-03-08T03:27:13;30.96;29.41;34.85;;
40103;Laerm;25814;48.550;9.108;2024-03-08T03:29:42;31.06;29.38;35.04;;
40103;Laerm;25814;48.550;9.108;2024-03-08T03:32:15;40.06;29.45;51.57;;
40103;Laerm;25814;48.550;9.108;2024-03-08T03:34:44;31.92;29.75;38.04;;
40103;Laerm;25814;48.550;9.108;2024-03-08T03:37:10;31.00;29.39;34.50;;
40103;Laerm;25814;48.550;9.108;2024-03-08T03:39:40;31.20;29.56;37.75;;
40103;Laerm;25814;48.550;9.108;2024-03-08T03:42:18;31.30;29.84;34.87;;
40103;Laerm;25814;48.550;9.108;2024-03-08T03:44:48;31.33;29.92;34.87;;
40103;Laerm;25814;48.550;9.108;2024-03-08T03:47:15;31.45;29.85;34.65;;
40103;Laerm;25814;48.550;9.108;2024-03-08T03:49:42;32.07;29.93;39.60;;
40103;Laerm;25814;48.550;9.108;2024-03-08T03:52:09;32.63;30.54;35.57;;
40103;Laerm;25814;48.550;9.108;2024-03-08T03:54:36;31.91;29.91;35.44;;
40103;Laerm;25814;48.550;9.108;2024-03-08T03:57:02;31.80;29.50;48.40;;
40103;Laerm;25814;48.550;9.108;2024-03-08T03:59:29;32.20;29.96;48.80;;
40103;Laerm;25814;48.550;9.108;2024-03-08T04:01:55;32.97;30.07;41.92;;
40103;Laerm;25814;48.550;9.108;2024-03-08T04:04:21;31.82;29.89;36.30;;
40103;Laerm;25814;48.550;9.108;2024-03-08T04:06:50;31.78;30.05;34.90;;
40103;Laerm;25814;48.550;9.108;2024-03-08T04:09:17;32.33;30.34;41.75;;
40103;Laerm;25814;48.550;9.108;2024-03-08T04:11:44;32.23;30.50;39.02;;
40103;Laerm;25814;48.550;9.108;2024-03-08T04:14:10;32.01;30.35;35.24;;
40103;Laerm;25814;48.550;9.108;2024-03-08T04:16:37;32.29;30.44;46.39;;
40103;Laerm;25814;48.550;9.108;2024-03-08T04:19:03;32.17;30.63;41.04;;
40103;Laerm;25814;48.550;9.108;2024-03-08T04:21:32;32.93;30.78;39.35;;
40103;Laerm;25814;48.550;9.108;2024-03-08T04:23:59;32.96;30.76;40.22;;
40103;Laerm;25814;48.550;9.108;2024-03-08T04:26:25;32.64;30.73;38.65;;
40103;Laerm;25814;48.550;9.108;2024-03-08T04:28:51;33.32;31.60;39.05;;
40103;Laerm;25814;48.550;9.108;2024-03-08T04:31:17;32.84;30.43;42.33;;
40103;Laerm;25814;48.550;9.108;2024-03-08T04:33:43;33.57;30.60;44.91;;
40103;Laerm;25814;48.550;9.108;2024-03-08T04:36:09;32.45;30.43;41.68;;
40103;Laerm;25814;48.550;9.108;2024-03-08T04:38:39;32.30;30.68;35.63;;
40103;Laerm;25814;48.550;9.108;2024-03-08T04:41:06;32.62;30.83;35.66;;
40103;Laerm;25814;48.550;9.108;2024-03-08T04:43:34;32.16;30.54;35.19;;
40103;Laerm;25814;48.550;9.108;2024-03-08T04:46:01;33.37;31.29;37.09;;
40103;Laerm;25814;48.550;9.108;2024-03-08T04:48:29;33.32;30.35;44.23;;
40103;Laerm;25814;48.550;9.108;2024-03-08T04:50:55;32.76;30.61;41.49;;
40103;Laerm;25814;48.550;9.108;2024-03-08T04:53:21;35.96;30.57;54.33;;
40103;Laerm;25814;48.550;9.108;2024-03-08T04:55:47;32.68;30.24;50.55;;
40103;Laerm;25814;48.550;9.108;2024-03-08T04:58:14;37.06;30.44;54.34;;
40103;Laerm;25814;48.550;9.108;2024-03-08T05:00:40;36.83;30.52;55.25;;
40103;Laerm;25814;48.550;9.108;2024-03-08T05:03:06;38.47;31.52;56.53;;
40103;Laerm;25814;48.550;9.108;2024-03-08T05:05:33;40.49;32.36;55.25;;
40103;Laerm;25814;48.550;9.108;2024-03-08T05:07:59;40.04;32.34;55.34;;
40103;Laerm;25814;48.550;9.108;2024-03-08T05:10:26;37.88;31.92;54.27;;
40103;Laerm;25814;48.550;9.108;2024-03-08T05:12:52;35.97;31.42;45.60;;
40103;Laerm;25814;48.550;9.108;2024-03-08T05:15:19;39.00;31.46;54.70;;
40103;Laerm;25814;48.550;9.108;2024-03-08T05:17:46;35.72;31.23;45.12;;
40103;Laerm;25814;48.550;9.108;2024-03-08T05:20:12;40.84;32.23;58.44;;
40103;Laerm;25814;48.550;9.108;2024-03-08T05:22:39;36.83;31.17;49.89;;
40103;Laerm;25814;48.550;9.108;2024-03-08T05:25:08;39.45;31.46;47.39;;
40103;Laerm;25814;48.550;9.108;2024-03-08T05:27:35;37.88;31.34;48.98;;
40103;Laerm;25814;48.550;9.108;2024-03-08T05:30:03;35.25;30.61;44.83;;
40103;Laerm;25814;48.550;9.108;2024-03-08T05:32:30;46.07;30.72;69.23;;
40103;Laerm;25814;48.550;9.108;2024-03-08T05:34:56;34.43;31.23;47.92;;
40103;Laerm;25814;48.550;9.108;2024-03-08T05:37:22;33.72;31.52;40.94;;
40103;Laerm;25814;48.550;9.108;2024-03-08T05:39:48;43.47;31.58;56.91;;
40103;Laerm;25814;48.550;9.108;2024-03-08T05:42:14;45.73;31.41;62.57;;
40103;Laerm;25814;48.550;9.108;2024-03-08T05:44:40;40.31;31.13;61.84;;
40103;Laerm;25814;48.550;9.108;2024-03-08T05:47:06;40.22;34.04;48.86;;
40103;Laerm;25814;48.550;9.108;2024-03-08T05:49:32;44.74;32.05;60.34;;
40103;Laerm;25814;48.550;9.108;2024-03-08T05:51:59;43.16;31.71;58.71;;
40103;Laerm;25814;48.550;9.108;2024-03-08T05:54:25;42.74;33.15;66.94;;
40103;Laerm;25814;48.550;9.108;2024-03-08T05:56:52;42.91;31.79;64.71;;
40103;Laerm;25814;48.550;9.108;2024-03-08T05:59:19;38.63;31.56;56.12;;
40103;Laerm;25814;48.550;9.108;2024-03-08T06:01:45;36.01;31.59;51.18;;
40103;Laerm;25814;48.550;9.108;2024-03-08T06:04:12;37.89;31.88;52.56;;
40103;Laerm;25814;48.550;9.108;2024-03-08T06:06:39;35.34;31.45;52.53;;
40103;Laerm;25814;48.550;9.108;2024-03-08T06:09:05;46.75;32.00;61.73;;
40103;Laerm;25814;48.550;9.108;2024-03-08T06:11:37;39.60;32.22;58.72;;
40103;Laerm;25814;48.550;9.108;2024-03-08T06:14:03;45.91;32.78;61.41;;
40103;Laerm;25814;48.550;9.108;2024-03-08T06:16:29;50.73;31.89;65.59;;
40103;Laerm;25814;48.550;9.108;2024-03-08T06:18:58;45.70;31.55;59.30;;
40103;Laerm;25814;48.550;9.108;2024-03-08T06:21:27;41.71;32.32;61.50;;
40103;Laerm;25814;48.550;9.108;2024-03-08T06:23:54;34.65;31.96;46.42;;
40103;Laerm;25814;48.550;9.108;2024-03-08T06:26:21;41.19;31.18;56.17;;
40103;Laerm;25814;48.550;9.108;2024-03-08T06:28:48;42.09;31.46;58.94;;
40103;Laerm;25814;48.550;9.108;2024-03-08T06:31:14;52.26;31.83;64.06;;
40103;Laerm;25814;48.550;9.108;2024-03-08T06:33:42;38.74;31.99;64.09;;
40103;Laerm;25814;48.550;9.108;2024-03-08T06:36:09;35.13;31.57;49.99;;
40103;Laerm;25814;48.550;9.108;2024-03-08T06:38:37;39.71;31.26;58.23;;
40103;Laerm;25814;48.550;9.108;2024-03-08T06:41:11;35.22;31.23;52.02;;
40103;Laerm;25814;48.550;9.108;2024-03-08T06:43:47;37.24;31.21;54.47;;
40103;Laerm;25814;48.550;9.108;2024-03-08T06:46:17;41.76;30.78;54.75;;
40103;Laerm;25814;48.550;9.108;2024-03-08T06:48:45;40.02;30.48;55.92;;
40103;Laerm;25814;48.550;9.108;2024-03-08T06:51:11;47.28;32.20;64.18;;
40103;Laerm;25814;48.550;9.108;2024-03-08T06:53:38;37.13;32.39;45.89;;
40103;Laerm;25814;48.550;9.108;2024-03-08T06:56:04;45.87;30.80;68.90;;
40103;Laerm;25814;48.550;9.108;2024-03-08T06:58:30;37.15;31.16;47.15;;
40103;Laerm;25814;48.550;9.108;2024-03-08T07:00:56;40.27;31.21;62.49;;
40103;Laerm;25814;48.550;9.108;2024-03-08T07:03:25;43.74;31.55;60.40;;
40103;Laerm;25814;48.550;9.108;2024-03-08T07:05:56;33.62;31.28;45.32;;
40103;Laerm;25814;48.550;9.108;2024-03-08T07:08:24;35.47;32.46;46.22;;
40103;Laerm;25814;48.550;9.108;2024-03-08T07:10:50;39.04;31.48;63.29;;
40103;Laerm;25814;48.550;9.108;2024-03-08T07:13:16;42.50;30.96;59.25;;
40103;Laerm;25814;48.550;9.108;2024-03-08T07:15:44;42.42;30.82;56.63;;
40103;Laerm;25814;48.550;9.108;2024-03-08T07:18:11;42.56;31.45;54.85;;
40103;Laerm;25814;48.550;9.108;2024-03-08T07:20:41;45.10;31.81;62.22;;
40103;Laerm;25814;48.550;9.108;2024-03-08T07:23:08;49.95;32.81;63.43;;
40103;Laerm;25814;48.550;9.108;2024-03-08T07:25:36;44.17;36.67;56.77;;
40103;Laerm;25814;48.550;9.108;2024-03-08T07:28:04;41.63;33.73;54.61;;
40103;Laerm;25814;48.550;9.108;2024-03-08T07:30:31;37.23;31.66;55.06;;
40103;Laerm;25814;48.550;9.108;2024-03-08T07:33:06;34.08;31.45;52.23;;
40103;Laerm;25814;48.550;9.108;2024-03-08T07:35:33;37.52;31.38;52.05;;
40103;Laerm;25814;48.550;9.108;2024-03-08T07:38:07;40.04;32.05;59.06;;
40103;Laerm;25814;48.550;9.108;2024-03-08T07:40:39;39.61;31.68;61.23;;
40103;Laerm;25814;48.550;9.108;2024-03-08T07:43:07;38.88;31.35;54.04;;
40103;Laerm;25814;48.550;9.108;2024-03-08T07:45:34;34.77;31.43;45.56;;
40103;Laerm;25814;48.550;9.108;2024-03-08T07:48:01;35.94;31.81;51.26;;
40103;Laerm;25814;48.550;9.108;2024-03-08T07:50:28;38.74;32.70;51.05;;
40103;Laerm;25814;48.550;9.108;2024-03-08T07:52:54;37.21;32.14;52.75;;
40103;Laerm;25814;48.550;9.108;2024-03-08T07:55:20;36.92;31.50;58.21;;
40103;Laerm;25814;48.550;9.108;2024-03-08T07:57:49;37.61;31.68;56.75;;
40103;Laerm;25814;48.550;9.108;2024-03-08T08:00:16;38.03;31.70;55.23;;
40103;Laerm;25814;48.550;9.108;2024-03-08T08:02:44;46.99;31.48;66.71;;
40103;Laerm;25814;48.550;9.108;2024-03-08T08:05:11;46.12;32.62;63.26;;
40103;Laerm;25814;48.550;9.108;2024-03-08T08:07:37;34.68;31.42;50.00;;
40103;Laerm;25814;48.550;9.108;2024-03-08T08:10:04;37.91;31.42;50.33;;
40103;Laerm;25814;48.550;9.108;2024-03-08T08:12:31;46.08;35.43;60.16;;
40103;Laerm;25814;48.550;9.108;2024-03-08T08:14:59;53.92;35.89;66.25;;
40103;Laerm;25814;48.550;9.108;2024-03-08T08:17:25;53.20;34.25;65.36;;
40103;Laerm;25814;48.550;9.108;2024-03-08T08:19:52;49.33;31.49;66.20;;
40103;Laerm;25814;48.550;9.108;2024-03-08T08:22:18;36.16;31.39;53.47;;
40103;Laerm;25814;48.550;9.108;2024-03-08T08:24:44;38.24;31.14;59.27;;
40103;Laerm;25814;48.550;9.108;2024-03-08T08:27:10;38.11;31.17;54.94;;
40103;Laerm;25814;48.550;9.108;2024-03-08T08:29:37;43.54;31.13;59.14;;
40103;Laerm;25814;48.550;9.108;2024-03-08T08:32:03;40.27;31.94;59.89;;
40103;Laerm;25814;48.550;9.108;2024-03-08T08:34:29;37.16;32.13;48.95;;
40103;Laerm;25814;48.550;9.108;2024-03-08T08:36:56;37.39;32.21;55.27;;
40103;Laerm;25814;48.550;9.108;2024-03-08T08:39:22;33.82;31.87;45.34;;
40103;Laerm;25814;48.550;9.108;2024-03-08T08:41:51;39.47;32.05;51.98;;
40103;Laerm;25814;48.550;9.108;2024-03-08T08:44:18;44.46;33.18;62.88;;
40103;Laerm;25814;48.550;9.108;2024-03-08T08:46:44;35.30;32.48;45.01;;
40103;Laerm;25814;48.550;9.108;2024-03-08T08:49:10;35.14;32.27;41.76;;
40103;Laerm;25814;48.550;9.108;2024-03-08T08:51:40;36.74;31.31;57.34;;
40103;Laerm;25814;48.550;9.108;2024-03-08T08:54:06;37.12;31.28;56.08;;
40103;Laerm;25814;48.550;9.108;2024-03-08T08:56:32;35.60;31.25;46.58;;
40103;Laerm;25814;48.550;9.108;2024-03-08T08:58:58;34.78;31.31;46.96;;
40103;Laerm;25814;48.550;9.108;2024-03-08T09:01:24;32.69;29.99;51.12;;
40103;Laerm;25814;48.550;9.108;2024-03-08T09:03:50;40.13;30.64;50.15;;
40103;Laerm;25814;48.550;9.108;2024-03-08T09:06:17;35.20;30.51;47.56;;
40103;Laerm;25814;48.550;9.108;2024-03-08T09:08:43;41.03;30.16;63.71;;
40103;Laerm;25814;48.550;9.108;2024-03-08T09:11:10;46.76;30.65;65.60;;
40103;Laerm;25814;48.550;9.108;2024-03-08T09:13:36;38.19;30.32;60.13;;
40103;Laerm;25814;48.550;9.108;2024-03-08T09:16:03;44.70;30.01;64.09;;
40103;Laerm;25814;48.550;9.108;2024-03-08T09:18:32;37.29;30.01;49.39;;
40103;Laerm;25814;48.550;9.108;2024-03-08T09:20:59;42.43;30.74;56.47;;
40103;Laerm;25814;48.550;9.108;2024-03-08T09:23:28;37.42;31.31;48.53;;
40103;Laerm;25814;48.550;9.108;2024-03-08T09:25:58;39.07;30.16;57.25;;
40103;Laerm;25814;48.550;9.108;2024-03-08T09:28:24;35.72;30.02;51.43;;
40103;Laerm;25814;48.550;9.108;2024-03-08T09:30:52;33.85;30.16;43.29;;
40103;Laerm;25814;48.550;9.108;2024-03-08T09:33:18;45.93;31.55;59.06;;
40103;Laerm;25814;48.550;9.108;2024-03-08T09:35:46;36.13;30.43;52.42;;
40103;Laerm;25814;48.550;9.108;2024-03-08T09:38:16;34.07;30.20;43.68;;
40103;Laerm;25814;48.550;9.108;2024-03-08T09:40:42;41.20;30.12;60.33;;
40103;Laerm;25814;48.550;9.108;2024-03-08T09:43:09;35.56;30.61;46.73;;
40103;Laerm;25814;48.550;9.108;2024-03-08T09:45:37;37.96;31.84;55.03;;
40103;Laerm;25814;48.550;9.108;2024-03-08T09:48:11;40.34;30.25;60.08;;
40103;Laerm;25814;48.550;9.108;2024-03-08T09:50:39;36.70;30.26;47.22;;
40103;Laerm;25814;48.550;9.108;2024-03-08T09:53:06;36.61;30.37;60.51;;
40103;Laerm;25814;48.550;9.108;2024-03-08T09:55:37;34.51;30.95;43.60;;
40103;Laerm;25814;48.550;9.108;2024-03-08T09:58:08;37.01;30.31;55.34;;
40103;Laerm;25814;48.550;9.108;2024-03-08T10:00:43;46.50;30.54;66.84;;
40103;Laerm;25814;48.550;9.108;2024-03-08T10:03:10;40.41;31.92;56.66;;
40103;Laerm;25814;48.550;9.108;2024-03-08T10:05:36;41.32;31.38;54.13;;
40103;Laerm;25814;48.550;9.108;2024-03-08T10:08:03;46.07;31.40;69.66;;
40103;Laerm;25814;48.550;9.108;2024-03-08T10:10:30;45.72;31.36;62.46;;
40103;Laerm;25814;48.550;9.108;2024-03-08T10:12:56;40.26;30.71;58.26;;
40103;Laerm;25814;48.550;9.108;2024-03-08T10:15:22;45.29;30.98;60.57;;
40103;Laerm;25814;48.550;9.108;2024-03-08T10:17:49;37.81;31.26;54.57;;
40103;Laerm;25814;48.550;9.108;2024-03-08T10:20:17;50.46;31.53;63.80;;
40103;Laerm;25814;48.550;9.108;2024-03-08T10:22:45;36.04;30.94;52.26;;
40103;Laerm;25814;48.550;9.108;2024-03-08T10:25:12;39.36;31.90;56.11;;
40103;Laerm;25814;48.550;9.108;2024-03-08T10:27:41;39.30;31.22;57.95;;
40103;Laerm;25814;48.550;9.108;2024-03-08T10:30:15;36.16;31.12;46.37;;
40103;Laerm;25814;48.550;9.108;2024-03-08T10:32:45;35.08;31.26;47.02;;
40103;Laerm;25814;48.550;9.108;2024-03-08T10:35:12;36.11;31.99;52.00;;
40103;Laerm;25814;48.550;9.108;2024-03-08T10:40:19;37.61;29.99;56.30;;
40103;Laerm;25814;48.550;9.108;2024-03-08T10:42:57;37.77;30.36;56.04;;
40103;Laerm;25814;48.550;9.108;2024-03-08T10:45:40;36.52;30.44;50.30;;
40103;Laerm;25814;48.550;9.108;2024-03-08T10:48:28;41.56;31.00;56.39;;
40103;Laerm;25814;48.550;9.108;2024-03-08T10:50:57;37.15;30.67;52.18;;
40103;Laerm;25814;48.550;9.108;2024-03-08T10:53:27;32.87;29.91;51.00;;
40103;Laerm;25814;48.550;9.108;2024-03-08T10:55:57;35.71;30.68;56.83;;
40103;Laerm;25814;48.550;9.108;2024-03-08T10:58:26;39.81;30.44;56.96;;
40103;Laerm;25814;48.550;9.108;2024-03-08T11:00:54;35.82;30.28;50.49;;
40103;Laerm;25814;48.550;9.108;2024-03-08T11:03:44;36.16;30.30;47.22;;
40103;Laerm;25814;48.550;9.108;2024-03-08T11:08:57;35.12;30.58;45.25;;
40103;Laerm;25814;48.550;9.108;2024-03-08T11:11:31;40.08;31.15;58.20;;
40103;Laerm;25814;48.550;9.108;2024-03-08T11:14:01;34.72;31.16;48.16;;
40103;Laerm;25814;48.550;9.108;2024-03-08T11:19:01;34.82;30.77;43.68;;
40103;Laerm;25814;48.550;9.108;2024-03-08T11:21:32;43.42;32.04;54.35;;
40103;Laerm;25814;48.550;9.108;2024-03-08T11:24:00;33.48;30.38;55.71;;
40103;Laerm;25814;48.550;9.108;2024-03-08T11:26:27;34.80;30.13;46.43;;
40103;Laerm;25814;48.550;9.108;2024-03-08T11:32:15;35.83;30.27;50.88;;
40103;Laerm;25814;48.550;9.108;2024-03-08T11:34:45;39.37;30.57;50.59;;
40103;Laerm;25814;48.550;9.108;2024-03-08T11:37:17;41.01;36.99;50.89;;
40103;Laerm;25814;48.550;9.108;2024-03-08T11:39:51;39.09;36.77;49.77;;
40103;Laerm;25814;48.550;9.108;2024-03-08T11:42:19;41.76;36.59;63.34;;
40103;Laerm;25814;48.550;9.108;2024-03-08T11:44:50;40.93;31.79;58.59;;
40103;Laerm;25814;48.550;9.108;2024-03-08T11:47:18;35.27;29.73;51.14;;
40103;Laerm;25814;48.550;9.108;2024-03-08T11:49:45;44.77;29.58;63.50;;
40103;Laerm;25814;48.550;9.108;2024-03-08T11:52:15;35.29;30.06;55.15;;
40103;Laerm;25814;48.550;9.108;2024-03-08T11:54:51;34.97;30.99;57.83;;
40103;Laerm;25814;48.550;9.108;2024-03-08T11:57:22;35.11;30.49;48.60;;
40103;Laerm;25814;48.550;9.108;2024-03-08T11:59:52;46.69;30.43;64.39;;
40103;Laerm;25814;48.550;9.108;2024-03-08T12:02:19;33.47;30.30;44.80;;
40103;Laerm;25814;48.550;9.108;2024-03-08T12:04:45;35.31;30.88;47.22;;
40103;Laerm;25814;48.550;9.108;2024-03-08T12:07:12;35.68;30.55;50.73;;
40103;Laerm;25814;48.550;9.108;2024-03-08T12:09:40;33.35;30.57;42.69;;
40103;Laerm;25814;48.550;9.108;2024-03-08T12:12:11;34.86;30.57;52.94;;
40103;Laerm;25814;48.550;9.108;2024-03-08T12:14:39;36.64;30.45;61.97;;
40103;Laerm;25814;48.550;9.108;2024-03-08T12:17:08;33.38;30.77;44.40;;
40103;Laerm;25814;48.550;9.108;2024-03-08T12:19:35;38.07;30.15;54.03;;
40103;Laerm;25814;48.550;9.108;2024-03-08T12:22:09;36.59;30.06;51.12;;
40103;Laerm;25814;48.550;9.108;2024-03-08T12:24:35;44.88;30.61;59.88;;
40103;Laerm;25814;48.550;9.108;2024-03-08T12:27:18;35.16;30.33;49.21;;
40103;Laerm;25814;48.550;9.108;2024-03-08T12:29:44;37.56;30.50;57.77;;
40103;Laerm;25814;48.550;9.108;2024-03-08T12:32:11;33.99;30.14;44.96;;
40103;Laerm;25814;48.550;9.108;2024-03-08T12:34:37;40.26;31.35;53.83;;
40103;Laerm;25814;48.550;9.108;2024-03-08T12:37:03;35.97;30.88;46.83;;
40103;Laerm;25814;48.550;9.108;2024-03-08T12:39:32;37.53;30.78;53.45;;
40103;Laerm;25814;48.550;9.108;2024-03-08T12:41:58;32.93;30.41;42.02;;
40103;Laerm;25814;48.550;9.108;2024-03-08T12:44:25;33.40;30.42;45.92;;
40103;Laerm;25814;48.550;9.108;2024-03-08T12:46:53;33.71;30.26;46.92;;
40103;Laerm;25814;48.550;9.108;2024-03-08T12:49:20;35.98;30.47;52.40;;
40103;Laerm;25814;48.550;9.108;2024-03-08T12:51:48;33.87;30.18;41.07;;
40103;Laerm;25814;48.550;9.108;2024-03-08T12:54:15;35.74;31.74;46.29;;
40103;Laerm;25814;48.550;9.108;2024-03-08T12:56:41;34.38;30.46;43.35;;
40103;Laerm;25814;48.550;9.108;2024-03-08T12:59:08;38.04;29.72;56.52;;
40103;Laerm;25814;48.550;9.108;2024-03-08T13:01:35;33.41;29.75;42.86;;
40103;Laerm;25814;48.550;9.108;2024-03-08T13:04:05;36.77;31.06;48.32;;
40103;Laerm;25814;48.550;9.108;2024-03-08T13:06:36;51.12;30.81;77.35;;
40103;Laerm;25814;48.550;9.108;2024-03-08T13:09:02;34.79;30.98;46.47;;
40103;Laerm;25814;48.550;9.108;2024-03-08T13:11:32;34.41;31.33;45.88;;
40103;Laerm;25814;48.550;9.108;2024-03-08T13:14:03;35.84;31.05;46.09;;
40103;Laerm;25814;48.550;9.108;2024-03-08T13:16:30;34.09;30.84;44.69;;
40103;Laerm;25814;48.550;9.108;2024-03-08T13:18:57;36.92;31.67;48.18;;
40103;Laerm;25814;48.550;9.108;2024-03-08T13:21:23;35.91;31.10;50.81;;
40103;Laerm;25814;48.550;9.108;2024-03-08T13:23:50;33.38;31.26;48.33;;
40103;Laerm;25814;48.550;9.108;2024-03-08T13:26:18;34.02;31.43;42.24;;
40103;Laerm;25814;48.550;9.108;2024-03-08T13:28:51;34.49;31.86;42.86;;
40103;Laerm;25814;48.550;9.108;2024-03-08T13:31:21;38.42;31.79;54.68;;
40103;Laerm;25814;48.550;9.108;2024-03-08T13:33:47;49.11;31.36;63.53;;
40103;Laerm;25814;48.550;9.108;2024-03-08T13:36:14;33.77;31.14;43.05;;
40103;Laerm;25814;48.550;9.108;2024-03-08T13:38:48;34.50;30.77;44.47;;
40103;Laerm;25814;48.550;9.108;2024-03-08T13:41:16;35.83;30.56;51.95;;
40103;Laerm;25814;48.550;9.108;2024-03-08T13:43:47;35.74;30.78;55.22;;
40103;Laerm;25814;48.550;9.108;2024-03-08T13:46:17;32.98;30.91;40.24;;
40103;Laerm;25814;48.550;9.108;2024-03-08T13:48:43;32.56;30.79;40.39;;
40103;Laerm;25814;48.550;9.108;2024-03-08T13:51:09;35.13;31.24;45.85;;
40103;Laerm;25814;48.550;9.108;2024-03-08T13:53:38;37.08;30.87;51.86;;
40103;Laerm;25814;48.550;9.108;2024-03-08T13:56:05;34.22;30.85;52.04;;
40103;Laerm;25814;48.550;9.108;2024-03-08T13:58:32;35.04;30.79;46.14;;
40103;Laerm;25814;48.550;9.108;2024-03-08T14:00:58;35.15;30.79;47.20;;